Aviation Digital Data Service (ADDS)

Output produced by METARs form (1655 UTC 20 January 2019)
found at http://www.aviationweather.gov/metar/data/
 
TAF SVBC 201600Z 2018/2118 09004KT 9999 BNK016 TX30/0718Z TN21/0808Z BENCMG
2018/2022 05008KT FEW016
       
TAF SVMI 201600Z 2018/2118 14005KT 9999 BKN016 TX25/0718Z TN23/0409Z 
     BECMG 2018/2022 09010KT SCT016
       
TAF SVMC 201600Z 2018/2118 09005KT 9999 BNK016 TX28/0716Z TN20/0907Z 
     BECMG 2018/2022 37011KT SCTE016
       
TAF SVMG 201600Z 2018/2118 09011KT 9999 BNK016 TX29/0817Z TN20/0809Z BENCMG
2018/2022 09013KT SCTE016
       
TAF SVJC 201600Z 2018/2118 08000KT 9999 BNK016 TX30/1911Z TN20/0706Z BENCMG
2018/2022 09010KT SCT016
       
TAF SVSA 201600Z 2018/2118 09005KT 9999 BNK016 TX30/0818Z TN21/0809Z BENCMG
2018/1922 08005KT SCT016